Decoded Metar for UBBG (GYANDZHA in RUSSIA) (IATA:N/A) | Meteo·Mobile Aviation Weather
aviador You're here:

UBBG Decoded Metar

GYANDZHA in RUSSIA
Report Time2019-06-26 21:30:00
UTC Time2019-06-26 22:00:19
Flight Rules vfr VFR
Wind180° at 10 kt
W.Decomp.*RWY 12: 5.6 kt HW 8.3 kt RCW
Visibility9999 m
Phenomena:N/A
Clouds:Few CB 040 Hf
Broken 083 Hf
Expected CloudBase > 3,200 ft AGL from Temp-Dew spread
Ceiling8,300 ft
Temp27°C (ISA +14)
Dew Point19°C (62% RH)
Heat Index28.2°C
AAT26.7°C
QNH1011 hPa
Density Alt3,074 ft
Elevation1,083 ft
Report Wrong Elevation
Raw Report
UBBG 262130Z 18010KT 9999 FEW040CB BKN083 27/19 Q1011 R30/190065
NOSIG=

Extra information for UBBG:More info

Metar Taf Metar & Taf Last 4 Metars F.Rules Stats Wind Profile Meteogram Temp Stats Airport Information Weather charts Add Link Nearby VenuesMetar ALERT Operation Metar Decoded Social comments